Broken Bow, Oklahoma
Current Conditions -  °F | °C
As of 2:35 AM on Friday 28 Nov 2014 (Local Time) from K4O4 Reporting Station
Clear Clear  
Wind Chill: 32°   Ceiling: Unl
Heat Index: 32°   Visibility: 10mi
Dew Point: 28°   Wind: 3mph
Humidity: 87%   Direction: 80°E
Pressure: 30.36"   Gusts: NA
Location:  34.03°N, 94.74°W
Report Text: K4O4 280835Z AUTO 08003KT 10SM CLR 00/M02 A3036 RMK AO2
Loading
Personal Weather Stations






























Interactive Weather Map New forecast layout! Learn more

10-Day Weather Forecast

Advertisements
Track Severe Weather on mobile